createdAt,value
2023-07-18T00:02:29.820Z,22.40
2023-07-18T00:05:18.298Z,22.40
2023-07-18T00:08:06.041Z,22.30
2023-07-18T00:10:52.971Z,22.30
2023-07-18T00:13:39.925Z,22.30
2023-07-18T00:16:26.776Z,22.30
2023-07-18T00:19:13.932Z,22.30
2023-07-18T00:22:02.414Z,22.30
2023-07-18T00:24:50.593Z,22.20
2023-07-18T00:27:39.669Z,22.20
2023-07-18T00:30:27.702Z,22.10
2023-07-18T00:33:15.269Z,22.10
2023-07-18T00:36:03.731Z,22.10
2023-07-18T00:38:53.574Z,22.10
2023-07-18T00:41:40.620Z,22.10
2023-07-18T00:44:27.802Z,22.10
2023-07-18T00:47:15.350Z,22.10
2023-07-18T00:50:03.450Z,22.10
2023-07-18T00:52:51.785Z,22.10
2023-07-18T00:55:40.932Z,22.10
2023-07-18T00:58:27.904Z,22.10
2023-07-18T01:01:14.957Z,22.10
2023-07-18T01:04:01.778Z,22.10
2023-07-18T01:06:50.356Z,22.10
2023-07-18T01:09:37.313Z,22.10
2023-07-18T01:12:25.572Z,22.10
2023-07-18T01:15:14.469Z,22.00
2023-07-18T01:18:04.590Z,21.90
2023-07-18T01:20:51.690Z,21.90
2023-07-18T01:23:40.008Z,21.80
2023-07-18T01:26:27.379Z,21.60
2023-07-18T01:29:14.578Z,21.50
2023-07-18T01:32:02.357Z,21.40
2023-07-18T01:34:49.694Z,21.30
2023-07-18T01:37:38.536Z,21.20
2023-07-18T01:40:28.021Z,21.10
2023-07-18T01:43:15.131Z,21.00
2023-07-18T01:46:03.044Z,20.90
2023-07-18T01:48:49.915Z,20.70
2023-07-18T01:51:38.753Z,20.70
2023-07-18T01:54:25.728Z,20.60
2023-07-18T01:57:14.627Z,20.40
2023-07-18T02:00:02.044Z,20.40
2023-07-18T02:02:52.794Z,20.40
2023-07-18T02:05:40.350Z,20.30
2023-07-18T02:08:27.355Z,20.20
2023-07-18T02:11:14.010Z,20.10
2023-07-18T02:14:04.658Z,20.00
2023-07-18T02:16:53.318Z,19.90
2023-07-18T02:19:41.314Z,19.80
2023-07-18T02:22:28.274Z,19.80
2023-07-18T02:25:18.904Z,19.70
2023-07-18T02:28:08.836Z,19.70
2023-07-18T02:30:57.269Z,19.80
2023-07-18T02:33:44.208Z,19.80
2023-07-18T02:36:31.178Z,19.70
2023-07-18T02:39:20.484Z,19.70
2023-07-18T02:42:08.824Z,19.60
2023-07-18T02:44:55.973Z,19.60
2023-07-18T02:47:44.279Z,19.60
2023-07-18T02:50:31.162Z,19.60
2023-07-18T02:53:17.956Z,19.50
2023-07-18T02:56:05.566Z,19.50
2023-07-18T02:58:52.975Z,19.40
2023-07-18T03:01:40.180Z,19.40
2023-07-18T03:04:29.044Z,19.30
2023-07-18T03:07:19.333Z,19.20
2023-07-18T03:10:09.155Z,19.20
2023-07-18T03:12:56.759Z,19.10
2023-07-18T03:15:43.860Z,19.00
2023-07-18T03:18:30.828Z,19.00
2023-07-18T03:21:19.824Z,19.00
2023-07-18T03:24:09.812Z,19.00
2023-07-18T03:26:57.017Z,18.90
2023-07-18T03:29:45.173Z,18.90
2023-07-18T03:32:32.271Z,18.90
2023-07-18T03:35:20.208Z,18.80
2023-07-18T03:38:08.686Z,18.80
2023-07-18T03:40:56.500Z,18.70
2023-07-18T03:43:43.576Z,18.70
2023-07-18T03:46:31.255Z,18.60
2023-07-18T03:49:18.232Z,18.60
2023-07-18T03:52:06.117Z,18.60
2023-07-18T03:54:54.298Z,18.50
2023-07-18T03:57:43.331Z,18.50
2023-07-18T04:00:30.328Z,18.50
2023-07-18T04:03:17.290Z,18.40
2023-07-18T04:06:04.444Z,18.40
2023-07-18T04:08:51.652Z,18.40
2023-07-18T04:11:42.524Z,18.40
2023-07-18T04:14:29.595Z,18.40
2023-07-18T04:17:17.562Z,18.50
2023-07-18T04:20:05.770Z,18.50
2023-07-18T04:22:52.664Z,18.50
2023-07-18T04:25:56.956Z,18.50
2023-07-18T04:28:45.549Z,18.60
2023-07-18T04:31:32.483Z,18.60
2023-07-18T04:34:20.328Z,18.70
2023-07-18T04:37:07.639Z,18.70
2023-07-18T04:39:54.480Z,18.80
2023-07-18T04:42:41.410Z,18.80
2023-07-18T04:45:30.700Z,18.90
2023-07-18T04:48:19.415Z,19.00
2023-07-18T04:51:07.109Z,19.00
2023-07-18T04:53:54.222Z,19.10
2023-07-18T04:56:41.744Z,19.20
2023-07-18T04:59:28.829Z,19.30
2023-07-18T05:02:17.245Z,19.40
2023-07-18T05:05:04.433Z,19.50
2023-07-18T05:07:52.498Z,19.70
2023-07-18T05:10:40.484Z,19.80
2023-07-18T05:13:27.634Z,19.90
2023-07-18T05:16:14.859Z,20.10
2023-07-18T05:19:03.683Z,20.20
2023-07-18T05:21:51.553Z,20.30
2023-07-18T05:24:47.865Z,20.50
2023-07-18T05:27:34.947Z,20.80
2023-07-18T05:30:22.150Z,21.00
2023-07-18T05:33:10.057Z,21.10
2023-07-18T05:35:58.525Z,21.20
2023-07-18T05:38:46.442Z,21.40
2023-07-18T05:41:33.720Z,21.50
2023-07-18T05:44:20.985Z,21.70
2023-07-18T05:47:08.428Z,21.90
2023-07-18T05:49:55.336Z,22.00
2023-07-18T05:52:43.930Z,22.10
2023-07-18T05:55:30.956Z,22.30
2023-07-18T05:58:17.815Z,22.40
2023-07-18T06:01:15.813Z,22.60
2023-07-18T06:04:03.249Z,22.70
2023-07-18T06:06:50.131Z,22.80
2023-07-18T06:09:39.223Z,23.00
2023-07-18T06:12:26.424Z,23.10
2023-07-18T06:15:13.264Z,23.30
2023-07-18T06:18:00.870Z,23.50
2023-07-18T06:20:47.951Z,23.70
2023-07-18T06:23:34.872Z,23.80
2023-07-18T06:26:23.661Z,23.90
2023-07-18T06:29:10.801Z,24.10
2023-07-18T06:31:59.282Z,24.20
2023-07-18T06:34:46.587Z,24.30
2023-07-18T06:37:33.763Z,24.50
2023-07-18T06:40:21.071Z,24.60
2023-07-18T06:43:09.980Z,24.60
2023-07-18T06:45:57.301Z,24.80
2023-07-18T06:48:44.321Z,25.00
2023-07-18T06:51:31.404Z,25.10
2023-07-18T06:54:18.200Z,25.30
2023-07-18T06:57:05.427Z,25.30
2023-07-18T06:59:53.954Z,25.40
2023-07-18T07:02:40.976Z,25.50
2023-07-18T07:05:28.330Z,25.50
2023-07-18T07:08:20.014Z,25.70
2023-07-18T07:11:07.943Z,25.80
2023-07-18T07:13:55.174Z,25.90
2023-07-18T07:16:44.339Z,26.10
2023-07-18T07:19:31.371Z,26.10
2023-07-18T07:22:18.577Z,26.30
2023-07-18T07:25:06.137Z,26.60
2023-07-18T07:27:52.994Z,27.00
2023-07-18T07:30:40.112Z,27.50
2023-07-18T07:33:28.267Z,28.40
2023-07-18T07:36:16.447Z,29.40
2023-07-18T07:39:04.505Z,30.50
2023-07-18T07:41:51.436Z,31.80
2023-07-18T07:44:38.486Z,32.90
2023-07-18T07:47:25.348Z,33.80
2023-07-18T07:50:14.528Z,34.70
2023-07-18T07:53:02.246Z,36.00
2023-07-18T07:55:49.906Z,36.50
2023-07-18T07:58:38.271Z,37.00
2023-07-18T08:01:25.431Z,37.50
2023-07-18T08:04:12.782Z,37.90
2023-07-18T08:07:01.758Z,38.30
2023-07-18T08:09:49.085Z,38.80
2023-07-18T08:12:35.964Z,39.10
2023-07-18T08:15:23.390Z,39.80
2023-07-18T08:18:10.313Z,40.60
2023-07-18T08:20:57.494Z,41.50
2023-07-18T08:23:46.336Z,41.70
2023-07-18T08:26:33.191Z,41.90
2023-07-18T08:29:20.518Z,42.20
2023-07-18T08:32:07.818Z,42.00
2023-07-18T08:34:54.759Z,41.60
2023-07-18T08:37:41.836Z,41.30
2023-07-18T08:40:30.602Z,41.40
2023-07-18T08:43:19.588Z,41.90
2023-07-18T08:46:06.964Z,42.60
2023-07-18T08:48:55.255Z,42.50
2023-07-18T08:51:43.091Z,42.50
2023-07-18T08:54:30.332Z,42.60
2023-07-18T08:57:21.744Z,42.80
2023-07-18T09:00:12.643Z,43.20
2023-07-18T09:03:00.028Z,43.90
2023-07-18T09:05:46.781Z,44.60
2023-07-18T09:08:45.260Z,45.00
2023-07-18T09:11:32.199Z,44.90
2023-07-18T09:14:26.718Z,44.80
2023-07-18T09:17:13.985Z,45.20
2023-07-18T09:20:09.608Z,45.60
2023-07-18T09:22:58.777Z,45.80
2023-07-18T09:25:45.877Z,46.10
2023-07-18T09:28:34.529Z,45.90
2023-07-18T09:31:26.125Z,45.50
2023-07-18T09:34:14.778Z,45.00
2023-07-18T09:37:04.804Z,44.90
2023-07-18T09:39:52.009Z,45.10
2023-07-18T09:42:45.230Z,45.20
2023-07-18T09:45:35.452Z,45.10
2023-07-18T09:48:25.130Z,44.50
2023-07-18T09:51:15.681Z,44.30
2023-07-18T09:54:05.932Z,43.90
2023-07-18T09:56:55.382Z,43.20
2023-07-18T09:59:42.874Z,42.80
2023-07-18T10:02:29.745Z,42.40
2023-07-18T10:05:19.970Z,41.80
2023-07-18T10:08:08.639Z,41.00
2023-07-18T10:11:05.516Z,40.00
2023-07-18T10:14:15.719Z,38.70
2023-07-18T10:17:06.379Z,37.80
2023-07-18T10:19:55.573Z,36.80
2023-07-18T10:22:58.451Z,36.00
2023-07-18T10:25:57.614Z,35.50
2023-07-18T10:28:46.668Z,35.10
2023-07-18T10:31:37.831Z,34.80
2023-07-18T10:34:24.779Z,34.20
2023-07-18T10:37:11.875Z,33.70
2023-07-18T10:40:06.282Z,33.20
2023-07-18T10:42:53.081Z,32.70
2023-07-18T10:45:41.350Z,32.30
2023-07-18T10:48:31.804Z,32.30
2023-07-18T10:51:19.669Z,32.30
2023-07-18T10:54:07.359Z,32.30
2023-07-18T10:56:55.657Z,32.50
2023-07-18T10:59:45.728Z,32.60
2023-07-18T11:03:00.931Z,32.70
2023-07-18T11:05:50.019Z,32.90
2023-07-18T11:08:37.322Z,33.00
2023-07-18T11:11:24.429Z,33.10
2023-07-18T11:14:12.962Z,33.00
2023-07-18T11:17:00.645Z,32.90
2023-07-18T11:19:49.539Z,32.90
2023-07-18T11:22:37.135Z,32.90
2023-07-18T11:25:24.295Z,33.00
2023-07-18T11:28:13.012Z,33.00
2023-07-18T11:31:01.601Z,33.00
2023-07-18T11:33:50.552Z,33.10
2023-07-18T11:36:38.681Z,33.20
2023-07-18T11:39:25.929Z,33.30
2023-07-18T11:42:12.993Z,33.30
2023-07-18T11:44:59.846Z,33.30
2023-07-18T11:47:50.941Z,33.50
2023-07-18T11:50:38.377Z,33.60
2023-07-18T11:53:27.882Z,33.70
2023-07-18T11:56:15.099Z,33.50
2023-07-18T11:59:02.457Z,33.30
2023-07-18T12:01:49.558Z,33.00
2023-07-18T12:04:40.155Z,32.80
2023-07-18T12:07:27.144Z,32.50
2023-07-18T12:10:16.797Z,32.10
2023-07-18T12:13:04.277Z,31.90
2023-07-18T12:15:51.463Z,31.90
2023-07-18T12:18:39.922Z,32.20
2023-07-18T12:21:28.595Z,32.50
2023-07-18T12:24:15.872Z,32.60
2023-07-18T12:27:02.837Z,32.60
2023-07-18T12:29:50.237Z,32.40
2023-07-18T12:32:38.929Z,32.10
2023-07-18T12:35:27.672Z,31.80
2023-07-18T12:38:16.541Z,31.50
2023-07-18T12:41:03.565Z,31.30
2023-07-18T12:43:51.029Z,31.10
2023-07-18T12:46:38.280Z,30.90
2023-07-18T12:52:15.042Z,30.50
2023-07-18T12:55:03.656Z,30.40
2023-07-18T12:57:52.002Z,30.10
2023-07-18T13:00:39.245Z,29.90
2023-07-18T13:03:30.189Z,29.60
2023-07-18T13:06:19.966Z,29.30
2023-07-18T13:09:07.374Z,29.00
2023-07-18T13:11:55.754Z,28.90
2023-07-18T13:14:43.008Z,28.80
2023-07-18T13:17:30.292Z,28.80
2023-07-18T13:20:20.030Z,28.70
2023-07-18T13:23:08.218Z,28.70
2023-07-18T13:25:55.287Z,28.60
2023-07-18T13:28:43.841Z,28.40
2023-07-18T13:31:30.770Z,28.30
2023-07-18T13:34:19.100Z,28.30
2023-07-18T13:37:06.586Z,28.20
2023-07-18T13:39:53.848Z,28.20
2023-07-18T13:42:40.960Z,28.30
2023-07-18T13:45:29.342Z,28.40
2023-07-18T13:48:16.462Z,28.70
2023-07-18T13:51:04.225Z,28.90
2023-07-18T13:53:52.485Z,29.00
2023-07-18T13:56:39.522Z,28.90
2023-07-18T13:59:27.201Z,28.80
2023-07-18T14:02:15.752Z,28.60
2023-07-18T14:05:03.227Z,28.60
2023-07-18T14:07:50.151Z,28.60
2023-07-18T14:10:37.485Z,28.60
2023-07-18T14:13:24.797Z,28.70
2023-07-18T14:16:12.903Z,28.70
2023-07-18T14:19:03.341Z,28.80
2023-07-18T14:21:50.425Z,28.80
2023-07-18T14:24:37.418Z,28.90
2023-07-18T14:27:24.535Z,29.00
2023-07-18T14:30:11.939Z,29.00
2023-07-18T14:32:59.307Z,28.90
2023-07-18T14:35:47.816Z,28.80
2023-07-18T14:38:34.696Z,28.70
2023-07-18T14:41:22.072Z,28.80
2023-07-18T14:44:11.841Z,29.00
2023-07-18T14:46:59.672Z,29.30
2023-07-18T14:49:46.854Z,29.40
2023-07-18T14:52:35.261Z,29.50
2023-07-18T14:55:22.362Z,29.40
2023-07-18T14:58:09.758Z,29.40
2023-07-18T15:00:56.491Z,29.40
2023-07-18T15:03:43.785Z,29.40
2023-07-18T15:06:30.966Z,29.50
2023-07-18T15:09:22.075Z,29.50
2023-07-18T15:12:09.751Z,29.50
2023-07-18T15:14:56.839Z,29.70
2023-07-18T15:17:45.471Z,29.80
2023-07-18T15:20:32.314Z,29.80
2023-07-18T15:23:19.414Z,29.80
2023-07-18T15:26:07.934Z,29.90
2023-07-18T15:28:54.894Z,30.00
2023-07-18T15:31:41.971Z,30.10
2023-07-18T15:34:30.702Z,30.10
2023-07-18T15:37:18.150Z,30.20
2023-07-18T15:40:06.038Z,30.20
2023-07-18T15:42:55.340Z,30.20
2023-07-18T15:45:42.293Z,30.10
2023-07-18T15:48:29.241Z,30.00
2023-07-18T15:51:16.449Z,30.00
2023-07-18T15:54:05.491Z,30.00
2023-07-18T15:56:52.726Z,30.00
2023-07-18T15:59:41.495Z,30.00
2023-07-18T16:02:28.477Z,30.00
2023-07-18T16:05:16.987Z,30.00
2023-07-18T16:08:03.839Z,30.00
2023-07-18T16:10:51.216Z,30.00
2023-07-18T16:13:40.200Z,30.10
2023-07-18T16:16:28.967Z,30.20
2023-07-18T16:19:15.850Z,30.40
2023-07-18T16:22:02.838Z,30.40
2023-07-18T16:24:50.126Z,30.40
2023-07-18T16:27:36.916Z,30.40
2023-07-18T16:30:24.011Z,30.40
2023-07-18T16:33:12.601Z,30.30
2023-07-18T16:36:01.501Z,30.30
2023-07-18T16:38:49.786Z,30.20
2023-07-18T16:41:39.995Z,30.30
2023-07-18T16:44:27.199Z,30.30
2023-07-18T16:47:14.083Z,30.30
2023-07-18T16:50:02.770Z,30.30
2023-07-18T16:52:50.072Z,30.30
2023-07-18T16:55:37.237Z,30.20
2023-07-18T16:58:24.324Z,30.10
2023-07-18T17:01:12.699Z,30.10
2023-07-18T17:04:00.875Z,30.00
2023-07-18T17:06:50.719Z,29.90
2023-07-18T17:09:37.941Z,29.80
2023-07-18T17:12:24.719Z,29.80
2023-07-18T17:15:12.753Z,29.70
2023-07-18T17:17:59.828Z,29.60
2023-07-18T17:20:46.967Z,29.50
2023-07-18T17:23:35.272Z,29.50
2023-07-18T17:26:23.271Z,29.40
2023-07-18T17:29:10.628Z,29.40
2023-07-18T17:31:57.535Z,29.30
2023-07-18T17:34:44.548Z,29.30
2023-07-18T17:37:31.949Z,29.30
2023-07-18T17:40:20.339Z,29.20
2023-07-18T17:43:07.731Z,29.10
2023-07-18T17:45:55.070Z,29.00
2023-07-18T17:48:42.748Z,29.00
2023-07-18T17:51:30.671Z,29.00
2023-07-18T17:54:19.359Z,28.90
2023-07-18T17:57:08.833Z,28.80
2023-07-18T17:59:56.638Z,28.80
2023-07-18T18:02:43.645Z,28.70
2023-07-18T18:05:37.561Z,28.60
2023-07-18T18:08:24.486Z,28.50
2023-07-18T18:11:11.408Z,28.40
2023-07-18T18:14:00.231Z,28.40
2023-07-18T18:16:47.520Z,28.40
2023-07-18T18:19:34.597Z,28.30
2023-07-18T18:22:22.146Z,28.30
2023-07-18T18:25:10.399Z,28.30
2023-07-18T18:27:57.780Z,28.20
2023-07-18T18:30:46.551Z,28.20
2023-07-18T18:33:33.905Z,28.10
2023-07-18T18:36:24.822Z,28.00
2023-07-18T18:39:13.280Z,27.90
2023-07-18T18:42:00.137Z,27.90
2023-07-18T18:44:47.245Z,27.80
2023-07-18T18:47:37.038Z,27.80
2023-07-18T18:50:24.106Z,27.70
2023-07-18T18:53:11.022Z,27.60
2023-07-18T18:55:59.507Z,27.60
2023-07-18T18:58:46.753Z,27.60
2023-07-18T19:01:34.057Z,27.50
2023-07-18T19:04:22.750Z,27.50
2023-07-18T19:07:09.998Z,27.40
2023-07-18T19:09:57.279Z,27.30
2023-07-18T19:12:44.444Z,27.30
2023-07-18T19:15:31.516Z,27.20
2023-07-18T19:18:18.630Z,27.20
2023-07-18T19:21:06.980Z,27.10
2023-07-18T19:23:54.092Z,27.00
2023-07-18T19:26:41.465Z,27.00
2023-07-18T19:29:28.689Z,26.80
2023-07-18T19:32:15.851Z,26.70
2023-07-18T19:35:04.045Z,26.60
2023-07-18T19:37:53.273Z,26.60
2023-07-18T19:40:40.102Z,26.50
2023-07-18T19:43:27.332Z,26.40
2023-07-18T19:46:14.749Z,26.40
2023-07-18T19:49:01.949Z,26.40
2023-07-18T19:51:49.277Z,26.40
2023-07-18T19:54:37.433Z,26.40
2023-07-18T19:57:24.341Z,26.30
2023-07-18T20:00:11.821Z,26.30
2023-07-18T20:02:58.745Z,26.30
2023-07-18T20:05:45.859Z,26.20
2023-07-18T20:08:33.141Z,26.20
2023-07-18T20:11:21.737Z,26.10
2023-07-18T20:14:08.926Z,26.10
2023-07-18T20:16:56.340Z,26.00
2023-07-18T20:19:44.627Z,26.00
2023-07-18T20:22:32.023Z,26.00
2023-07-18T20:25:19.216Z,25.90
2023-07-18T20:28:07.657Z,25.90
2023-07-18T20:30:54.818Z,25.90
2023-07-18T20:33:43.735Z,25.80
2023-07-18T20:36:31.091Z,25.80
2023-07-18T20:39:18.058Z,25.80
2023-07-18T20:42:05.425Z,25.70
2023-07-18T20:44:53.849Z,25.70
2023-07-18T20:47:41.303Z,25.60
2023-07-18T20:50:28.398Z,25.60
2023-07-18T20:53:15.106Z,25.60
2023-07-18T20:56:02.310Z,25.60
2023-07-18T20:58:49.481Z,25.50
2023-07-18T21:01:38.025Z,25.50
2023-07-18T21:04:25.210Z,25.40
2023-07-18T21:07:12.460Z,25.40
2023-07-18T21:09:59.330Z,25.40
2023-07-18T21:12:46.867Z,25.30
2023-07-18T21:15:34.413Z,25.20
2023-07-18T21:18:23.769Z,25.20
2023-07-18T21:21:11.239Z,25.10
2023-07-18T21:23:59.203Z,25.10
2023-07-18T21:26:46.386Z,25.10
2023-07-18T21:29:33.422Z,25.00
2023-07-18T21:32:20.430Z,25.00
2023-07-18T21:35:09.817Z,24.90
2023-07-18T21:37:56.984Z,24.90
2023-07-18T21:40:44.123Z,24.90
2023-07-18T21:43:31.315Z,24.80
2023-07-18T21:46:18.849Z,24.80
2023-07-18T21:49:05.967Z,24.80
2023-07-18T21:51:54.107Z,24.80
2023-07-18T21:54:41.284Z,24.70
2023-07-18T21:57:28.203Z,24.70
2023-07-18T22:00:15.940Z,24.70
2023-07-18T22:03:02.879Z,24.60
2023-07-18T22:05:51.380Z,24.60
2023-07-18T22:08:40.213Z,24.50
2023-07-18T22:11:27.358Z,24.40
2023-07-18T22:14:14.400Z,24.20
2023-07-18T22:17:01.683Z,24.20
2023-07-18T22:19:48.600Z,24.20
2023-07-18T22:22:35.723Z,24.10
2023-07-18T22:25:24.328Z,24.10
2023-07-18T22:28:11.667Z,24.10
2023-07-18T22:30:58.609Z,24.10
2023-07-18T22:33:45.581Z,24.10
2023-07-18T22:36:32.624Z,24.10
2023-07-18T22:39:33.487Z,24.10
2023-07-18T22:42:24.584Z,24.00
2023-07-18T22:45:12.303Z,24.00
2023-07-18T22:47:59.669Z,23.90
2023-07-18T22:50:46.666Z,23.80
2023-07-18T22:53:34.272Z,23.70
2023-07-18T22:56:22.194Z,23.60
2023-07-18T22:59:10.867Z,23.50
2023-07-18T23:01:57.929Z,23.40
2023-07-18T23:04:44.823Z,23.30
2023-07-18T23:07:31.757Z,23.20
2023-07-18T23:10:18.859Z,23.10
2023-07-18T23:13:05.553Z,23.10
2023-07-18T23:15:54.465Z,23.10
2023-07-18T23:18:41.490Z,23.10
2023-07-18T23:21:28.202Z,23.10
2023-07-18T23:24:15.476Z,23.10
2023-07-18T23:27:02.681Z,23.10
2023-07-18T23:29:49.439Z,23.10
2023-07-18T23:32:37.886Z,23.10
2023-07-18T23:35:26.878Z,23.10
2023-07-18T23:38:13.839Z,23.10
2023-07-18T23:41:00.836Z,23.10
2023-07-18T23:43:48.139Z,23.00
2023-07-18T23:46:35.256Z,23.00
2023-07-18T23:49:23.809Z,23.00
2023-07-18T23:52:10.822Z,23.00
2023-07-18T23:54:57.974Z,23.00
2023-07-18T23:57:45.322Z,23.00
